Дата Пункты Температура Давл., мм. Влажн., % Ветер Погодные явления
Воздуха Воды Направл. Скорость
08.09.19 03:00 Одесса 19.0 22.0 762 91 Пн 0 03 ГОДИНИ
07.09.19 09:00 Одесса 23.0 22.0 761 46 Пд 1 21 ГОДИНУ
07.09.19 06:00 Одесса 26.0 22.0 760 39 Пд 1 18 ГОДИН
07.09.19 03:00 Одесса 27.0 22.0 760 37 Пд-С 2 15 ГОДИН
07.09.19 12:00 Одесса 26.0 22.0 761 46 Пн-С 2 12 ГОДИН
07.09.19 09:00 Одесса 21.0 22.0 760 61 Пн 2 09 ГОДИН
07.09.19 06:00 Одесса 18.0 22.0 760 72 Пн-З 1 06 ГОДИН
07.09.19 03:00 Одесса 20.0 22.0 760 72 Пн-З 1 03 ГОДИНИ
06.09.19 09:00 Одесса 23.0 22.0 759 50 Пн-З 3 21 ГОДИНУ
06.09.19 06:00 Одесса 26.0 22.0 759 44 Пн 1 18 ГОДИН
06.09.19 03:00 Одесса 24.0 22.0 759 53 Пн 0 15 ГОДИН
06.09.19 12:00 Одесса 23.0 21.0 759 57 С 3 12 ГОДИН
06.09.19 09:00 Одесса 19.0 21.0 759 70 Пн 1 09 ГОДИН
06.09.19 06:00 Одесса 15.0 21.0 758 83 Пн-З 2 06 ГОДИН
06.09.19 03:00 Одесса 16.0 21.0 758 77 Пн-З 2 03 ГОДИНИ
05.09.19 09:00 Одесса 18.0 21.0 758 67 Пн-З 1 21 ГОДИНУ
05.09.19 06:00 Одесса 22.0 23.0 757 47 Пн-З 1 18 ГОДИН
05.09.19 03:00 Одесса 23.0 23.0 758 42 Пн 1 15 ГОДИН
05.09.19 12:00 Одесса 24.0 21.0 758 42 Пн 2 12 ГОДИН
05.09.19 09:00 Одесса 19.0 21.0 759 62 Пн 1 09 ГОДИН
Количество строк
1 2 3 4 5 6 7 8 9 10
Page 4 of 530